Bookmark and Share
Track history (hours):
 

Nissho Maru No7

Last reported at 2014-Apr-24 10:31 UTC. Time now 2014-Apr-24 11:05 UTC.
Position N 35°21' E 139°51'.

Length 73 m; draft 4.1 m.

Type: Cargo ship. MMSI: 431200355.

NotesDate/timePositionNaut miles runAvg speedWind from/ knotsBaromVisibWave heightAir tempDewpointWater temp
2014-Apr-24 10:31N 35°21' E 139°51'0 0.0
2014-Apr-24 09:31N 35°21' E 139°51'0 0.0
2014-Apr-24 08:31N 35°21' E 139°51'0 0.0
2014-Apr-24 07:33N 35°21' E 139°51'2 2.1
2014-Apr-24 06:33N 35°22' E 139°49'0 0.1
2014-Apr-24 05:33N 35°22' E 139°49'0 0.0
2014-Apr-24 04:33N 35°22' E 139°49'0 0.0
2014-Apr-24 03:33N 35°22' E 139°49'0 0.0
2014-Apr-24 02:33N 35°22' E 139°49'0 0.0
2014-Apr-24 01:33N 35°22' E 139°49'0 0.0
2014-Apr-24 00:33N 35°22' E 139°49'0 0.0
2014-Apr-23 23:33N 35°22' E 139°49'0 0.0
2014-Apr-23 22:33N 35°22' E 139°49'0 0.0
2014-Apr-23 21:33N 35°22' E 139°49'0 0.0
2014-Apr-23 20:33N 35°22' E 139°49'0 0.0
2014-Apr-23 19:30N 35°22' E 139°49'0 0.0
2014-Apr-23 18:33N 35°22' E 139°49'0 0.0
2014-Apr-23 17:33N 35°22' E 139°49'0 0.0
2014-Apr-23 16:33N 35°22' E 139°49'0 0.0
2014-Apr-23 15:33N 35°22' E 139°49'0 0.0
2014-Apr-23 14:33N 35°22' E 139°49'0 0.0
2014-Apr-23 13:33N 35°22' E 139°49'0 0.0
2014-Apr-23 12:33N 35°22' E 139°49'0 0.0
2014-Apr-23 11:33N 35°22' E 139°49'0 0.0
2014-Apr-23 10:33N 35°22' E 139°49'0 0.0
2014-Apr-23 09:33N 35°22' E 139°49'0 0.0
2014-Apr-23 08:30N 35°22' E 139°49'0 0.4
2014-Apr-23 07:33N 35°23' E 139°49'1110.8
2014-Apr-23 06:33N 35°33' E 139°54'8 8.3
2014-Apr-23 05:33N 35°41' E 139°58'0 0.0
2014-Apr-23 04:33N 35°41' E 139°58'0 0.0
2014-Apr-23 03:33N 35°41' E 139°58'0 0.0
2014-Apr-23 02:33N 35°41' E 139°58'0 0.0
2014-Apr-23 01:33N 35°41' E 139°58'0 0.0
2014-Apr-23 00:33N 35°41' E 139°58'0 0.0
2014-Apr-22 23:33N 35°41' E 139°58'3 3.5
2014-Apr-22 22:33N 35°37' E 139°58'1111.0
2014-Apr-22 21:33N 35°28' E 139°51'1110.7
2014-Apr-22 20:33N 35°19' E 139°44'1010.3
2014-Apr-22 19:33N 35°09' E 139°46'1110.6
2014-Apr-22 18:33N 35°01' E 139°36'  
2014-Apr-20 13:31N 34°08' E 134°60'1010.6
2014-Apr-20 12:32N 34°18' E 134°59'1010.4
2014-Apr-20 11:33N 34°28' E 135°01'9 9.0
2014-Apr-20 10:33N 34°37' E 134°59'9 0.6
2014-Apr-19 18:12N 34°41' E 134°48'1 0.1
2014-Apr-19 10:08N 34°40' E 134°49'1 1.3
2014-Apr-19 09:15N 34°39' E 134°50'7 9.8
2014-Apr-19 08:33N 34°37' E 134°58'8 8.3
2014-Apr-19 07:33N 34°36' E 135°08'1111.0
2014-Apr-19 06:33N 34°37' E 135°21'5 5.1
2014-Apr-19 05:30N 34°39' E 135°28'0 0.0
2014-Apr-19 04:12N 34°39' E 135°28'0 0.0
2014-Apr-19 03:30N 34°39' E 135°28'0 0.0
2014-Apr-19 02:30N 34°39' E 135°28'0 0.0
2014-Apr-19 01:30N 34°39' E 135°28'0 0.0
2014-Apr-19 00:30N 34°39' E 135°28'0 0.0
2014-Apr-18 23:33N 34°39' E 135°28'5 4.6
2014-Apr-18 22:33N 34°37' E 135°23'0 0.0
2014-Apr-18 21:25N 34°37' E 135°23'0 0.0
2014-Apr-18 20:31N 34°37' E 135°23'0 0.0
2014-Apr-18 19:31N 34°37' E 135°23'0 0.0
2014-Apr-18 18:31N 34°37' E 135°23'0 0.0
2014-Apr-18 17:31N 34°37' E 135°23'0 0.0
2014-Apr-18 16:31N 34°37' E 135°23'0 0.0
2014-Apr-18 15:31N 34°37' E 135°23'0 0.0
2014-Apr-18 14:31N 34°37' E 135°23'0 0.0
2014-Apr-18 13:31N 34°37' E 135°23'0 0.1
2014-Apr-18 12:33N 34°37' E 135°23'9 8.6
2014-Apr-18 11:33N 34°36' E 135°12'10 9.6
2014-Apr-18 10:33N 34°37' E 135°01'10 0.8
2014-Apr-17 21:33N 34°40' E 134°48'10 9.5
2014-Apr-17 20:33N 34°38' E 134°60'7 7.2
2014-Apr-17 19:33N 34°32' E 135°04'1210.3
2014-Apr-17 18:25N 34°21' E 135°00'8 9.6
2014-Apr-17 17:33N 34°12' E 134°60'221 8.4
2014-Apr-16 15:25N 34°50' E 139°23'910.3
2014-Apr-16 14:32N 34°51' E 139°34'9 9.5
2014-Apr-16 13:33N 34°52' E 139°46'10 9.4
2014-Apr-16 12:31N 34°54' E 139°57'9 9.2
2014-Apr-16 11:33N 34°58' E 140°06'10 9.4
2014-Apr-16 10:29N 35°04' E 140°17'17 8.5
2014-Apr-16 08:30N 35°16' E 140°31'10 9.8
2014-Apr-16 07:29N 35°24' E 140°39'  

Dump ship's entire track history

sailing weather and tide predictions

Nissho Maru No7 — JH3472 — position and weather